Главная страница
METAR-TAF:

METAR-TAF

Аэропорты :

Душанбе, Таджикистан

широта: 38-33N, долгота: 068-47E, высота над уровнем моря: 803 м

Текущие метеонаблюдения

Эта сводка был подготовлена 29 минут назад, в 18:00 UTC
Ветер 2 Узел переменных направлений
Температура 5°C
Влажность 87%
Давление 1026 hPa
Видимость: 3400 м
дымка

METAR: UTDD 151800Z VRB01MPS 3400 BR NSC 05/03 Q1026 R09/D NOSIG RMK QFE700/0934

Время: 23:29 (18:29 UTC)

Прогноз

Эта сводка был подготовлена 3 часа и 29 минут назад, в 15:00 UTC
Прогноз действительный с 15-го 16 UTC до 16-го 04 UTC
Ветер 4 Узел переменных направлений
Видимость: 3100 м
Отдельные облака на высоте 3000 фута, Кучево-дождевые.
Рассеянная облачность на высоте 6000 фута
дымка, дым
временами
С 15-го 18 UTC до 16-го 00 UTC
Видимость: 1000 м
дымка, дым
временами
С 16-го 00 UTC до 16-го 04 UTC
Видимость: 0600 м
туман, дым

TAF: UTDD 151500Z 1516/1604 VRB02MPS 3100 BR FU SCT030CB BKN060 TEMPO 1518/1600 1000 BR FU TEMPO 1600/1604 0600 FG FU

Метеонаблюдения и прогнозы для более 4000 аэропортов (сводки METAR и TAF).

Имеющиеся станции представлены на карте желтыми и красными точками.

Чтобы увидеть название станции, наведите на нее мышь.

Затем щелкните, чтобы увидеть метеонаблюдения и метеопрогнозы.

Управление картой: чтобы увеличить масштаб, щелкните зеленые кнопки с черным крестиком; чтобы уменьшить масштаб, щелкните зеленую кнопку с тире; для просмотра соседних карт щелкайте зеленые стрелки.


METAR-TAF: